sensor_id;sensor_type;location;lat;lon;timestamp;pressure;altitude;pressure_sealevel;temperature;humidity
4598;BME280;62772;48.646;8.906;2023-02-11T00:00:17;98208.88;;;-4.95;100.00
4598;BME280;62772;48.646;8.906;2023-02-11T00:05:20;98213.91;;;-5.26;100.00
4598;BME280;62772;48.646;8.906;2023-02-11T00:10:20;98209.31;;;-4.83;100.00
4598;BME280;62772;48.646;8.906;2023-02-11T00:15:21;98206.06;;;-4.68;100.00
4598;BME280;62772;48.646;8.906;2023-02-11T00:20:21;98210.28;;;-4.84;100.00
4598;BME280;62772;48.646;8.906;2023-02-11T00:25:21;98204.78;;;-4.97;100.00
4598;BME280;62772;48.646;8.906;2023-02-11T00:30:22;98212.59;;;-5.22;100.00
4598;BME280;62772;48.646;8.906;2023-02-11T00:35:23;98205.59;;;-5.05;100.00
4598;BME280;62772;48.646;8.906;2023-02-11T00:40:23;98200.72;;;-5.16;100.00
4598;BME280;62772;48.646;8.906;2023-02-11T00:45:23;98189.28;;;-4.90;100.00
4598;BME280;62772;48.646;8.906;2023-02-11T00:50:24;98188.44;;;-5.65;100.00
4598;BME280;62772;48.646;8.906;2023-02-11T00:55:25;98190.81;;;-6.05;100.00
4598;BME280;62772;48.646;8.906;2023-02-11T01:00:25;98185.38;;;-5.69;100.00
4598;BME280;62772;48.646;8.906;2023-02-11T01:05:26;98203.88;;;-5.80;100.00
4598;BME280;62772;48.646;8.906;2023-02-11T01:10:27;98203.75;;;-5.70;100.00
4598;BME280;62772;48.646;8.906;2023-02-11T01:15:28;98192.63;;;-5.89;100.00
4598;BME280;62772;48.646;8.906;2023-02-11T01:20:29;98177.47;;;-6.10;100.00
4598;BME280;62772;48.646;8.906;2023-02-11T01:25:30;98168.31;;;-5.63;100.00
4598;BME280;62772;48.646;8.906;2023-02-11T01:30:30;98171.41;;;-5.51;100.00
4598;BME280;62772;48.646;8.906;2023-02-11T01:35:31;98159.31;;;-5.85;100.00
4598;BME280;62772;48.646;8.906;2023-02-11T01:40:31;98145.69;;;-5.54;100.00
4598;BME280;62772;48.646;8.906;2023-02-11T01:45:54;98147.25;;;-5.86;100.00
4598;BME280;62772;48.646;8.906;2023-02-11T01:51:02;98146.31;;;-5.52;100.00
4598;BME280;62772;48.646;8.906;2023-02-11T01:56:04;98141.44;;;-5.96;100.00
4598;BME280;62772;48.646;8.906;2023-02-11T02:01:25;98136.72;;;-6.01;100.00
4598;BME280;62772;48.646;8.906;2023-02-11T02:06:34;98128.03;;;-6.18;100.00
4598;BME280;62772;48.646;8.906;2023-02-11T02:11:36;98126.59;;;-5.88;100.00
4598;BME280;62772;48.646;8.906;2023-02-11T02:16:37;98129.22;;;-6.04;100.00
4598;BME280;62772;48.646;8.906;2023-02-11T02:37:54;98108.56;;;-5.89;100.00
4598;BME280;62772;48.646;8.906;2023-02-11T02:42:56;98101.44;;;-5.71;100.00
4598;BME280;62772;48.646;8.906;2023-02-11T02:47:57;98097.84;;;-5.53;100.00
4598;BME280;62772;48.646;8.906;2023-02-11T02:53:11;98092.31;;;-5.42;100.00
4598;BME280;62772;48.646;8.906;2023-02-11T03:08:45;98092.16;;;-5.49;100.00
4598;BME280;62772;48.646;8.906;2023-02-11T03:13:47;98099.59;;;-5.21;100.00
4598;BME280;62772;48.646;8.906;2023-02-11T03:18:52;98107.59;;;-5.22;100.00
4598;BME280;62772;48.646;8.906;2023-02-11T03:24:02;98087.91;;;-5.33;100.00
4598;BME280;62772;48.646;8.906;2023-02-11T03:29:38;98088.53;;;-5.15;100.00
4598;BME280;62772;48.646;8.906;2023-02-11T03:35:03;98091.63;;;-5.19;100.00
4598;BME280;62772;48.646;8.906;2023-02-11T03:40:09;98097.47;;;-5.17;100.00
4598;BME280;62772;48.646;8.906;2023-02-11T03:45:14;98106.16;;;-5.58;100.00
4598;BME280;62772;48.646;8.906;2023-02-11T03:50:17;98090.13;;;-4.97;100.00
4598;BME280;62772;48.646;8.906;2023-02-11T03:55:20;98072.03;;;-4.99;100.00
4598;BME280;62772;48.646;8.906;2023-02-11T04:00:29;98061.88;;;-4.77;100.00
4598;BME280;62772;48.646;8.906;2023-02-11T04:05:30;98095.25;;;-4.72;100.00
4598;BME280;62772;48.646;8.906;2023-02-11T04:10:31;98080.59;;;-4.74;100.00
4598;BME280;62772;48.646;8.906;2023-02-11T04:15:31;98079.53;;;-4.96;100.00
4598;BME280;62772;48.646;8.906;2023-02-11T04:20:32;98080.56;;;-4.65;100.00
4598;BME280;62772;48.646;8.906;2023-02-11T04:25:32;98077.38;;;-4.44;100.00
4598;BME280;62772;48.646;8.906;2023-02-11T04:30:33;98089.44;;;-4.83;100.00
4598;BME280;62772;48.646;8.906;2023-02-11T04:35:33;98095.25;;;-4.72;100.00
4598;BME280;62772;48.646;8.906;2023-02-11T04:40:34;98095.63;;;-4.44;100.00
4598;BME280;62772;48.646;8.906;2023-02-11T04:45:34;98094.44;;;-4.33;100.00
4598;BME280;62772;48.646;8.906;2023-02-11T04:50:34;98097.13;;;-4.19;100.00
4598;BME280;62772;48.646;8.906;2023-02-11T04:55:35;98090.75;;;-4.47;100.00
4598;BME280;62772;48.646;8.906;2023-02-11T05:00:35;98086.06;;;-4.21;100.00
4598;BME280;62772;48.646;8.906;2023-02-11T05:05:40;98084.25;;;-4.20;100.00
4598;BME280;62772;48.646;8.906;2023-02-11T05:10:45;98088.56;;;-4.04;100.00
4598;BME280;62772;48.646;8.906;2023-02-11T05:15:45;98080.03;;;-4.21;100.00
4598;BME280;62772;48.646;8.906;2023-02-11T05:20:45;98082.94;;;-4.47;100.00
4598;BME280;62772;48.646;8.906;2023-02-11T05:25:46;98072.50;;;-4.16;100.00
4598;BME280;62772;48.646;8.906;2023-02-11T05:30:46;98057.91;;;-4.02;100.00
4598;BME280;62772;48.646;8.906;2023-02-11T05:35:47;98042.47;;;-3.89;100.00
4598;BME280;62772;48.646;8.906;2023-02-11T05:40:48;98034.09;;;-3.99;100.00
4598;BME280;62772;48.646;8.906;2023-02-11T05:45:48;98036.56;;;-4.06;100.00
4598;BME280;62772;48.646;8.906;2023-02-11T05:50:48;98020.34;;;-3.93;100.00
4598;BME280;62772;48.646;8.906;2023-02-11T05:55:49;98009.50;;;-3.90;100.00
4598;BME280;62772;48.646;8.906;2023-02-11T06:00:49;97995.56;;;-3.97;100.00
4598;BME280;62772;48.646;8.906;2023-02-11T06:05:50;98009.75;;;-3.99;100.00
4598;BME280;62772;48.646;8.906;2023-02-11T06:10:50;98002.59;;;-3.97;100.00
4598;BME280;62772;48.646;8.906;2023-02-11T06:15:55;98026.00;;;-4.12;100.00
4598;BME280;62772;48.646;8.906;2023-02-11T06:20:56;98027.47;;;-4.10;100.00
4598;BME280;62772;48.646;8.906;2023-02-11T06:26:00;98039.81;;;-4.04;100.00
4598;BME280;62772;48.646;8.906;2023-02-11T06:31:05;98062.97;;;-4.01;100.00
4598;BME280;62772;48.646;8.906;2023-02-11T06:36:13;98055.41;;;-3.95;100.00
4598;BME280;62772;48.646;8.906;2023-02-11T06:41:16;98065.44;;;-3.84;100.00
4598;BME280;62772;48.646;8.906;2023-02-11T06:46:19;98045.88;;;-3.65;100.00
4598;BME280;62772;48.646;8.906;2023-02-11T06:51:19;98045.97;;;-3.58;100.00
4598;BME280;62772;48.646;8.906;2023-02-11T06:56:21;98039.25;;;-3.53;100.00
4598;BME280;62772;48.646;8.906;2023-02-11T07:01:24;98040.50;;;-3.49;100.00
4598;BME280;62772;48.646;8.906;2023-02-11T07:06:26;98050.75;;;-3.62;100.00
4598;BME280;62772;48.646;8.906;2023-02-11T07:11:27;98059.88;;;-3.58;100.00
4598;BME280;62772;48.646;8.906;2023-02-11T07:16:28;98063.91;;;-3.55;100.00
4598;BME280;62772;48.646;8.906;2023-02-11T07:21:29;98071.41;;;-3.37;100.00
4598;BME280;62772;48.646;8.906;2023-02-11T07:26:29;98069.13;;;-3.17;100.00
4598;BME280;62772;48.646;8.906;2023-02-11T07:31:30;98070.00;;;-3.40;100.00
4598;BME280;62772;48.646;8.906;2023-02-11T07:36:31;98056.41;;;-3.20;100.00
4598;BME280;62772;48.646;8.906;2023-02-11T07:41:31;98053.72;;;-3.12;100.00
4598;BME280;62772;48.646;8.906;2023-02-11T07:46:34;98068.84;;;-3.22;100.00
4598;BME280;62772;48.646;8.906;2023-02-11T07:51:34;98089.78;;;-3.07;100.00
4598;BME280;62772;48.646;8.906;2023-02-11T07:56:35;98091.50;;;-3.00;100.00
4598;BME280;62772;48.646;8.906;2023-02-11T08:01:36;98095.03;;;-2.93;100.00
4598;BME280;62772;48.646;8.906;2023-02-11T08:06:40;98077.00;;;-2.87;100.00
4598;BME280;62772;48.646;8.906;2023-02-11T08:11:42;98080.94;;;-2.92;100.00
4598;BME280;62772;48.646;8.906;2023-02-11T08:16:42;98065.09;;;-2.90;100.00
4598;BME280;62772;48.646;8.906;2023-02-11T08:21:43;98063.56;;;-2.84;100.00
4598;BME280;62772;48.646;8.906;2023-02-11T08:26:43;98066.69;;;-2.74;100.00
4598;BME280;62772;48.646;8.906;2023-02-11T08:31:47;98050.38;;;-2.61;100.00
4598;BME280;62772;48.646;8.906;2023-02-11T08:36:48;98056.03;;;-2.43;100.00
4598;BME280;62772;48.646;8.906;2023-02-11T08:41:53;98050.75;;;-2.28;100.00
4598;BME280;62772;48.646;8.906;2023-02-11T08:46:55;98051.22;;;-2.24;100.00
4598;BME280;62772;48.646;8.906;2023-02-11T08:51:56;98062.19;;;-2.14;100.00
4598;BME280;62772;48.646;8.906;2023-02-11T08:57:01;98059.03;;;-1.88;100.00
4598;BME280;62772;48.646;8.906;2023-02-11T09:02:02;98062.00;;;-1.69;100.00
4598;BME280;62772;48.646;8.906;2023-02-11T09:07:02;98047.50;;;-1.72;100.00
4598;BME280;62772;48.646;8.906;2023-02-11T09:12:04;98042.78;;;-1.55;100.00
4598;BME280;62772;48.646;8.906;2023-02-11T09:17:04;98051.72;;;-1.49;100.00
4598;BME280;62772;48.646;8.906;2023-02-11T09:22:05;98050.84;;;-1.28;100.00
4598;BME280;62772;48.646;8.906;2023-02-11T09:27:05;98055.31;;;-0.94;100.00
4598;BME280;62772;48.646;8.906;2023-02-11T09:32:06;98052.16;;;-0.82;100.00
4598;BME280;62772;48.646;8.906;2023-02-11T09:37:07;98055.66;;;-0.68;100.00
4598;BME280;62772;48.646;8.906;2023-02-11T09:48:13;98049.91;;;-0.44;100.00
4598;BME280;62772;48.646;8.906;2023-02-11T09:53:26;98043.06;;;-0.38;100.00
4598;BME280;62772;48.646;8.906;2023-02-11T09:58:29;98048.34;;;-0.31;100.00
4598;BME280;62772;48.646;8.906;2023-02-11T10:19:49;98062.03;;;0.59;100.00
4598;BME280;62772;48.646;8.906;2023-02-11T10:24:57;98064.25;;;0.76;100.00
4598;BME280;62772;48.646;8.906;2023-02-11T10:30:05;98043.81;;;0.84;100.00
4598;BME280;62772;48.646;8.906;2023-02-11T10:35:13;98048.63;;;1.07;100.00
4598;BME280;62772;48.646;8.906;2023-02-11T10:40:17;98040.94;;;1.06;100.00
4598;BME280;62772;48.646;8.906;2023-02-11T10:45:24;98052.81;;;1.35;100.00
4598;BME280;62772;48.646;8.906;2023-02-11T10:50:31;98047.44;;;1.62;100.00
4598;BME280;62772;48.646;8.906;2023-02-11T10:55:36;98044.97;;;1.74;100.00
4598;BME280;62772;48.646;8.906;2023-02-11T11:00:41;98028.94;;;1.75;100.00
4598;BME280;62772;48.646;8.906;2023-02-11T11:06:07;98018.47;;;2.01;100.00
4598;BME280;62772;48.646;8.906;2023-02-11T11:11:10;98010.34;;;2.02;100.00
4598;BME280;62772;48.646;8.906;2023-02-11T11:21:18;98003.59;;;1.74;100.00
4598;BME280;62772;48.646;8.906;2023-02-11T11:26:20;98009.19;;;2.23;100.00
4598;BME280;62772;48.646;8.906;2023-02-11T11:31:33;98003.94;;;2.48;100.00
4598;BME280;62772;48.646;8.906;2023-02-11T11:36:37;98003.44;;;2.33;100.00
4598;BME280;62772;48.646;8.906;2023-02-11T11:41:48;97999.53;;;2.61;100.00
4598;BME280;62772;48.646;8.906;2023-02-11T11:47:04;98004.22;;;2.33;100.00
4598;BME280;62772;48.646;8.906;2023-02-11T11:57:36;98000.69;;;3.08;100.00
4598;BME280;62772;48.646;8.906;2023-02-11T12:18:16;97990.47;;;3.68;95.86
4598;BME280;62772;48.646;8.906;2023-02-11T12:29:22;97979.91;;;3.68;100.00
4598;BME280;62772;48.646;8.906;2023-02-11T12:34:33;97978.75;;;3.75;100.00
4598;BME280;62772;48.646;8.906;2023-02-11T12:45:12;97980.13;;;4.08;98.06
4598;BME280;62772;48.646;8.906;2023-02-11T12:55:44;97974.25;;;4.18;97.04
4598;BME280;62772;48.646;8.906;2023-02-11T13:00:56;97978.75;;;4.17;97.77
4598;BME280;62772;48.646;8.906;2023-02-11T13:06:10;97977.50;;;4.20;99.34
4598;BME280;62772;48.646;8.906;2023-02-11T13:11:22;97972.34;;;4.25;100.00
4598;BME280;62772;48.646;8.906;2023-02-11T13:16:37;97967.50;;;4.22;100.00
4598;BME280;62772;48.646;8.906;2023-02-11T13:22:02;97956.91;;;4.34;100.00
4598;BME280;62772;48.646;8.906;2023-02-11T13:27:10;97950.25;;;4.43;100.00
4598;BME280;62772;48.646;8.906;2023-02-11T13:32:16;97942.66;;;4.47;100.00
4598;BME280;62772;48.646;8.906;2023-02-11T13:37:20;97947.97;;;4.59;100.00
4598;BME280;62772;48.646;8.906;2023-02-11T13:42:21;97943.81;;;4.51;100.00
4598;BME280;62772;48.646;8.906;2023-02-11T13:52:31;97951.16;;;4.84;100.00
4598;BME280;62772;48.646;8.906;2023-02-11T13:57:35;97949.69;;;4.65;100.00
4598;BME280;62772;48.646;8.906;2023-02-11T14:02:36;97956.00;;;4.87;100.00
4598;BME280;62772;48.646;8.906;2023-02-11T14:13:30;97952.50;;;5.11;100.00
4598;BME280;62772;48.646;8.906;2023-02-11T14:18:57;97949.28;;;5.20;100.00
4598;BME280;62772;48.646;8.906;2023-02-11T14:45:15;97946.53;;;5.44;100.00
4598;BME280;62772;48.646;8.906;2023-02-11T14:50:25;97947.34;;;5.44;100.00
4598;BME280;62772;48.646;8.906;2023-02-11T14:55:32;97948.53;;;5.37;100.00
4598;BME280;62772;48.646;8.906;2023-02-11T15:00:34;97945.72;;;5.72;99.50
4598;BME280;62772;48.646;8.906;2023-02-11T15:05:34;97952.03;;;5.54;100.00
4598;BME280;62772;48.646;8.906;2023-02-11T15:10:40;97958.97;;;5.43;100.00
4598;BME280;62772;48.646;8.906;2023-02-11T15:15:42;97969.81;;;5.42;100.00
4598;BME280;62772;48.646;8.906;2023-02-11T15:20:46;97972.38;;;5.37;100.00
4598;BME280;62772;48.646;8.906;2023-02-11T15:25:47;97966.75;;;5.21;100.00
4598;BME280;62772;48.646;8.906;2023-02-11T15:31:02;97980.59;;;5.23;100.00
4598;BME280;62772;48.646;8.906;2023-02-11T15:36:03;97974.13;;;5.19;100.00
4598;BME280;62772;48.646;8.906;2023-02-11T15:41:04;97972.66;;;5.12;100.00
4598;BME280;62772;48.646;8.906;2023-02-11T15:46:09;97970.63;;;4.90;100.00
4598;BME280;62772;48.646;8.906;2023-02-11T15:51:12;97980.41;;;5.01;100.00
4598;BME280;62772;48.646;8.906;2023-02-11T15:56:40;97984.31;;;4.99;100.00
4598;BME280;62772;48.646;8.906;2023-02-11T16:01:43;97991.81;;;4.90;100.00
4598;BME280;62772;48.646;8.906;2023-02-11T16:06:44;97983.63;;;4.56;100.00
4598;BME280;62772;48.646;8.906;2023-02-11T16:16:53;97996.25;;;4.30;100.00
4598;BME280;62772;48.646;8.906;2023-02-11T16:21:56;97997.44;;;4.34;100.00
4598;BME280;62772;48.646;8.906;2023-02-11T16:26:59;98004.97;;;4.19;100.00
4598;BME280;62772;48.646;8.906;2023-02-11T16:37:16;98028.34;;;3.92;100.00
4598;BME280;62772;48.646;8.906;2023-02-11T16:42:16;98030.03;;;3.86;100.00
4598;BME280;62772;48.646;8.906;2023-02-11T16:47:23;98039.88;;;3.49;100.00
4598;BME280;62772;48.646;8.906;2023-02-11T16:52:24;98045.41;;;3.77;100.00
4598;BME280;62772;48.646;8.906;2023-02-11T16:57:25;98059.66;;;3.58;100.00
4598;BME280;62772;48.646;8.906;2023-02-11T17:02:30;98053.88;;;3.68;100.00
4598;BME280;62772;48.646;8.906;2023-02-11T17:07:32;98054.53;;;3.63;100.00
4598;BME280;62772;48.646;8.906;2023-02-11T17:12:32;98063.53;;;3.74;100.00
4598;BME280;62772;48.646;8.906;2023-02-11T17:17:33;98066.16;;;3.74;100.00
4598;BME280;62772;48.646;8.906;2023-02-11T17:22:33;98073.47;;;3.60;100.00
4598;BME280;62772;48.646;8.906;2023-02-11T17:27:34;98074.06;;;3.62;100.00
4598;BME280;62772;48.646;8.906;2023-02-11T17:32:35;98072.44;;;3.42;100.00
4598;BME280;62772;48.646;8.906;2023-02-11T17:37:36;98073.38;;;3.67;100.00
4598;BME280;62772;48.646;8.906;2023-02-11T17:42:36;98068.41;;;3.40;100.00
4598;BME280;62772;48.646;8.906;2023-02-11T17:47:36;98075.47;;;3.65;100.00
4598;BME280;62772;48.646;8.906;2023-02-11T17:52:37;98079.91;;;3.64;100.00
4598;BME280;62772;48.646;8.906;2023-02-11T17:57:37;98078.06;;;3.27;100.00
4598;BME280;62772;48.646;8.906;2023-02-11T18:02:38;98091.84;;;3.55;100.00
4598;BME280;62772;48.646;8.906;2023-02-11T18:07:38;98081.16;;;3.43;100.00
4598;BME280;62772;48.646;8.906;2023-02-11T18:12:39;98101.44;;;3.49;100.00
4598;BME280;62772;48.646;8.906;2023-02-11T18:17:39;98109.59;;;3.66;100.00
4598;BME280;62772;48.646;8.906;2023-02-11T18:22:40;98103.78;;;3.57;100.00
4598;BME280;62772;48.646;8.906;2023-02-11T18:27:40;98104.13;;;3.61;100.00
4598;BME280;62772;48.646;8.906;2023-02-11T18:32:41;98115.66;;;3.30;100.00
4598;BME280;62772;48.646;8.906;2023-02-11T18:37:42;98116.09;;;3.26;100.00
4598;BME280;62772;48.646;8.906;2023-02-11T18:42:44;98111.69;;;3.20;100.00
4598;BME280;62772;48.646;8.906;2023-02-11T18:47:48;98113.03;;;3.04;100.00
4598;BME280;62772;48.646;8.906;2023-02-11T18:52:49;98108.63;;;2.73;100.00
4598;BME280;62772;48.646;8.906;2023-02-11T18:57:50;98118.97;;;2.43;100.00
4598;BME280;62772;48.646;8.906;2023-02-11T19:02:52;98120.94;;;2.54;100.00
4598;BME280;62772;48.646;8.906;2023-02-11T19:07:52;98122.59;;;2.48;100.00
4598;BME280;62772;48.646;8.906;2023-02-11T19:12:54;98119.44;;;2.33;100.00
4598;BME280;62772;48.646;8.906;2023-02-11T19:17:55;98121.75;;;2.54;100.00
4598;BME280;62772;48.646;8.906;2023-02-11T19:22:56;98123.50;;;2.35;100.00
4598;BME280;62772;48.646;8.906;2023-02-11T19:27:56;98125.13;;;2.30;100.00
4598;BME280;62772;48.646;8.906;2023-02-11T19:32:56;98127.41;;;2.26;100.00
4598;BME280;62772;48.646;8.906;2023-02-11T19:37:57;98117.34;;;2.42;100.00
4598;BME280;62772;48.646;8.906;2023-02-11T19:42:58;98121.19;;;2.46;100.00
4598;BME280;62772;48.646;8.906;2023-02-11T19:47:58;98121.44;;;2.69;100.00
4598;BME280;62772;48.646;8.906;2023-02-11T19:52:58;98115.59;;;2.35;100.00
4598;BME280;62772;48.646;8.906;2023-02-11T19:58:01;98114.84;;;2.22;100.00
4598;BME280;62772;48.646;8.906;2023-02-11T20:03:02;98109.00;;;2.13;100.00
4598;BME280;62772;48.646;8.906;2023-02-11T20:08:02;98112.56;;;1.93;100.00
4598;BME280;62772;48.646;8.906;2023-02-11T20:13:03;98098.38;;;1.94;100.00
4598;BME280;62772;48.646;8.906;2023-02-11T20:18:03;98100.00;;;1.89;100.00
4598;BME280;62772;48.646;8.906;2023-02-11T20:23:04;98094.19;;;1.80;100.00
4598;BME280;62772;48.646;8.906;2023-02-11T20:28:04;98106.09;;;1.83;100.00
4598;BME280;62772;48.646;8.906;2023-02-11T20:33:04;98098.03;;;1.77;100.00
4598;BME280;62772;48.646;8.906;2023-02-11T20:38:05;98105.13;;;1.77;100.00
4598;BME280;62772;48.646;8.906;2023-02-11T20:43:05;98095.31;;;1.97;100.00
4598;BME280;62772;48.646;8.906;2023-02-11T20:48:06;98111.81;;;1.73;100.00
4598;BME280;62772;48.646;8.906;2023-02-11T20:53:06;98111.16;;;1.84;100.00
4598;BME280;62772;48.646;8.906;2023-02-11T20:58:06;98115.34;;;1.53;100.00
4598;BME280;62772;48.646;8.906;2023-02-11T21:03:07;98123.81;;;1.62;100.00
4598;BME280;62772;48.646;8.906;2023-02-11T21:08:07;98134.16;;;1.57;100.00
4598;BME280;62772;48.646;8.906;2023-02-11T21:13:07;98122.44;;;1.53;100.00
4598;BME280;62772;48.646;8.906;2023-02-11T21:18:08;98129.13;;;1.49;100.00
4598;BME280;62772;48.646;8.906;2023-02-11T21:23:08;98127.91;;;1.44;100.00
4598;BME280;62772;48.646;8.906;2023-02-11T21:28:09;98121.38;;;1.67;100.00
4598;BME280;62772;48.646;8.906;2023-02-11T21:33:09;98128.31;;;1.48;100.00
4598;BME280;62772;48.646;8.906;2023-02-11T21:38:10;98128.28;;;1.61;100.00
4598;BME280;62772;48.646;8.906;2023-02-11T21:43:11;98132.75;;;1.61;100.00
4598;BME280;62772;48.646;8.906;2023-02-11T21:48:11;98131.97;;;1.47;100.00
4598;BME280;62772;48.646;8.906;2023-02-11T21:53:13;98140.44;;;1.62;100.00
4598;BME280;62772;48.646;8.906;2023-02-11T21:58:13;98140.56;;;1.81;100.00
4598;BME280;62772;48.646;8.906;2023-02-11T22:03:17;98148.63;;;1.93;100.00
4598;BME280;62772;48.646;8.906;2023-02-11T22:08:17;98141.28;;;2.40;100.00
4598;BME280;62772;48.646;8.906;2023-02-11T22:13:18;98146.69;;;2.20;100.00
4598;BME280;62772;48.646;8.906;2023-02-11T22:18:18;98140.53;;;2.33;100.00
4598;BME280;62772;48.646;8.906;2023-02-11T22:23:18;98147.50;;;2.21;100.00
4598;BME280;62772;48.646;8.906;2023-02-11T22:28:19;98157.00;;;2.28;100.00
4598;BME280;62772;48.646;8.906;2023-02-11T22:33:20;98156.84;;;2.16;100.00
4598;BME280;62772;48.646;8.906;2023-02-11T22:38:20;98154.53;;;1.88;100.00
4598;BME280;62772;48.646;8.906;2023-02-11T22:43:21;98149.22;;;1.95;100.00
4598;BME280;62772;48.646;8.906;2023-02-11T22:48:21;98147.13;;;1.58;100.00
4598;BME280;62772;48.646;8.906;2023-02-11T22:53:22;98167.78;;;1.61;100.00
4598;BME280;62772;48.646;8.906;2023-02-11T22:58:24;98167.56;;;1.63;100.00
4598;BME280;62772;48.646;8.906;2023-02-11T23:03:25;98155.22;;;1.57;100.00
4598;BME280;62772;48.646;8.906;2023-02-11T23:08:26;98147.13;;;1.58;100.00
4598;BME280;62772;48.646;8.906;2023-02-11T23:13:27;98159.88;;;1.61;100.00
4598;BME280;62772;48.646;8.906;2023-02-11T23:18:28;98156.44;;;1.54;100.00
4598;BME280;62772;48.646;8.906;2023-02-11T23:23:28;98157.50;;;1.47;100.00
4598;BME280;62772;48.646;8.906;2023-02-11T23:28:29;98157.94;;;1.95;100.00
4598;BME280;62772;48.646;8.906;2023-02-11T23:33:29;98158.88;;;1.62;100.00
4598;BME280;62772;48.646;8.906;2023-02-11T23:38:30;98154.75;;;1.73;100.00
4598;BME280;62772;48.646;8.906;2023-02-11T23:43:30;98154.31;;;1.90;100.00
4598;BME280;62772;48.646;8.906;2023-02-11T23:48:31;98153.56;;;2.21;100.00
4598;BME280;62772;48.646;8.906;2023-02-11T23:53:31;98169.28;;;2.41;100.00
4598;BME280;62772;48.646;8.906;2023-02-11T23:58:32;98171.00;;;2.22;100.00
